Terminal Aerodrome Forecast
Issued by NWS Grand Junction, CO

Home | Current Version | Previous Version | Text Only | Print | Product List | Glossary On
Versions: 1 2 3 4 5 6 7 8 9 10 11 12 13 14 15
000
FTUS45 KGJT 261135 AAD
TAFGJT
TAF AMD
KGJT 261135Z 2612/2712 VRB03KT P6SM FEW200
     FM261400 13005KT P6SM SKC
     FM262000 32004KT P6SM FEW200
     FM270100 06005KT P6SM SKC
     FM270700 11005KT P6SM SCT090 BKN150
     FM271000 12004KT P6SM VCSH BKN070=

USA.gov is the U.S. government's official web portal to all federal, state and local government web resources and services.